sensor_id;sensor_type;location;lat;lon;timestamp;temperature;humidity
70244;DHT22;57634;51.136;17.024;2023-02-12T00:01:41;7.70;90.10
70244;DHT22;57634;51.136;17.024;2023-02-12T00:04:43;7.70;90.10
70244;DHT22;57634;51.136;17.024;2023-02-12T00:07:45;7.70;90.10
70244;DHT22;57634;51.136;17.024;2023-02-12T00:10:46;7.70;90.20
70244;DHT22;57634;51.136;17.024;2023-02-12T00:13:48;7.60;90.10
70244;DHT22;57634;51.136;17.024;2023-02-12T00:16:50;7.70;90.10
70244;DHT22;57634;51.136;17.024;2023-02-12T00:19:51;7.60;90.10
70244;DHT22;57634;51.136;17.024;2023-02-12T00:22:53;7.70;90.20
70244;DHT22;57634;51.136;17.024;2023-02-12T00:25:54;7.70;90.10
70244;DHT22;57634;51.136;17.024;2023-02-12T00:28:56;7.70;90.10
70244;DHT22;57634;51.136;17.024;2023-02-12T00:32:25;7.70;90.10
70244;DHT22;57634;51.136;17.024;2023-02-12T00:35:26;7.70;90.10
70244;DHT22;57634;51.136;17.024;2023-02-12T00:38:28;7.70;90.00
70244;DHT22;57634;51.136;17.024;2023-02-12T00:41:29;7.70;90.10
70244;DHT22;57634;51.136;17.024;2023-02-12T00:44:31;7.60;90.00
70244;DHT22;57634;51.136;17.024;2023-02-12T00:49:31;7.60;90.00
70244;DHT22;57634;51.136;17.024;2023-02-12T00:52:35;7.60;90.00
70244;DHT22;57634;51.136;17.024;2023-02-12T00:55:37;7.50;90.10
70244;DHT22;57634;51.136;17.024;2023-02-12T00:58:39;7.60;90.10
70244;DHT22;57634;51.136;17.024;2023-02-12T01:01:40;7.50;90.10
70244;DHT22;57634;51.136;17.024;2023-02-12T01:04:41;7.50;90.20
70244;DHT22;57634;51.136;17.024;2023-02-12T01:07:43;7.50;90.20
70244;DHT22;57634;51.136;17.024;2023-02-12T01:10:44;7.50;90.30
70244;DHT22;57634;51.136;17.024;2023-02-12T01:13:46;7.50;90.30
70244;DHT22;57634;51.136;17.024;2023-02-12T01:16:47;7.50;90.30
70244;DHT22;57634;51.136;17.024;2023-02-12T01:19:48;7.50;90.20
70244;DHT22;57634;51.136;17.024;2023-02-12T01:22:50;7.50;90.30
70244;DHT22;57634;51.136;17.024;2023-02-12T01:25:52;7.50;90.20
70244;DHT22;57634;51.136;17.024;2023-02-12T01:29:20;7.50;90.30
70244;DHT22;57634;51.136;17.024;2023-02-12T01:32:21;7.50;90.30
70244;DHT22;57634;51.136;17.024;2023-02-12T01:35:23;7.40;90.30
70244;DHT22;57634;51.136;17.024;2023-02-12T01:38:24;7.50;90.30
70244;DHT22;57634;51.136;17.024;2023-02-12T01:41:28;7.50;90.40
70244;DHT22;57634;51.136;17.024;2023-02-12T01:44:31;7.50;90.40
70244;DHT22;57634;51.136;17.024;2023-02-12T01:47:33;7.50;90.40
70244;DHT22;57634;51.136;17.024;2023-02-12T01:50:34;7.50;90.30
70244;DHT22;57634;51.136;17.024;2023-02-12T01:53:39;7.60;90.30
70244;DHT22;57634;51.136;17.024;2023-02-12T01:56:42;7.60;90.30
70244;DHT22;57634;51.136;17.024;2023-02-12T01:59:47;7.60;90.20
70244;DHT22;57634;51.136;17.024;2023-02-12T02:03:18;7.70;90.10
70244;DHT22;57634;51.136;17.024;2023-02-12T02:06:24;7.70;90.10
70244;DHT22;57634;51.136;17.024;2023-02-12T02:09:32;7.60;90.00
70244;DHT22;57634;51.136;17.024;2023-02-12T02:12:34;7.60;90.00
70244;DHT22;57634;51.136;17.024;2023-02-12T02:15:50;7.60;90.00
70244;DHT22;57634;51.136;17.024;2023-02-12T02:19:00;7.50;90.00
70244;DHT22;57634;51.136;17.024;2023-02-12T02:32:17;7.50;90.20
70244;DHT22;57634;51.136;17.024;2023-02-12T02:45:37;7.50;90.20
70244;DHT22;57634;51.136;17.024;2023-02-12T02:49:11;7.50;90.20
70244;DHT22;57634;51.136;17.024;2023-02-12T02:52:25;7.50;90.20
70244;DHT22;57634;51.136;17.024;2023-02-12T02:55:32;7.50;90.10
70244;DHT22;57634;51.136;17.024;2023-02-12T02:58:38;7.60;90.10
70244;DHT22;57634;51.136;17.024;2023-02-12T03:01:46;7.60;90.10
70244;DHT22;57634;51.136;17.024;2023-02-12T03:05:02;7.60;90.10
70244;DHT22;57634;51.136;17.024;2023-02-12T03:08:28;7.60;90.10
70244;DHT22;57634;51.136;17.024;2023-02-12T03:11:34;7.60;90.00
70244;DHT22;57634;51.136;17.024;2023-02-12T03:14:42;7.70;90.00
70244;DHT22;57634;51.136;17.024;2023-02-12T03:17:47;7.70;90.00
70244;DHT22;57634;51.136;17.024;2023-02-12T03:20:59;7.70;89.90
70244;DHT22;57634;51.136;17.024;2023-02-12T03:27:46;7.70;89.70
70244;DHT22;57634;51.136;17.024;2023-02-12T03:37:29;7.70;89.60
70244;DHT22;57634;51.136;17.024;2023-02-12T03:41:08;7.80;89.50
70244;DHT22;57634;51.136;17.024;2023-02-12T03:50:53;7.80;89.30
70244;DHT22;57634;51.136;17.024;2023-02-12T03:54:18;7.80;89.30
70244;DHT22;57634;51.136;17.024;2023-02-12T03:57:24;7.80;89.30
70244;DHT22;57634;51.136;17.024;2023-02-12T04:00:30;7.80;89.20
70244;DHT22;57634;51.136;17.024;2023-02-12T04:03:33;7.80;89.20
70244;DHT22;57634;51.136;17.024;2023-02-12T04:06:34;7.80;89.10
70244;DHT22;57634;51.136;17.024;2023-02-12T04:09:36;7.80;89.00
70244;DHT22;57634;51.136;17.024;2023-02-12T04:12:40;7.80;89.00
70244;DHT22;57634;51.136;17.024;2023-02-12T04:32:56;7.80;88.80
70244;DHT22;57634;51.136;17.024;2023-02-12T04:36:01;7.70;88.70
70244;DHT22;57634;51.136;17.024;2023-02-12T04:39:08;7.70;88.60
70244;DHT22;57634;51.136;17.024;2023-02-12T04:42:11;7.80;88.70
70244;DHT22;57634;51.136;17.024;2023-02-12T04:45:17;7.80;88.70
70244;DHT22;57634;51.136;17.024;2023-02-12T04:48:20;7.80;88.60
70244;DHT22;57634;51.136;17.024;2023-02-12T04:51:22;7.80;88.60
70244;DHT22;57634;51.136;17.024;2023-02-12T04:54:50;7.70;88.50
70244;DHT22;57634;51.136;17.024;2023-02-12T04:57:51;7.80;88.50
70244;DHT22;57634;51.136;17.024;2023-02-12T05:00:52;7.80;88.60
70244;DHT22;57634;51.136;17.024;2023-02-12T05:03:53;7.80;88.60
70244;DHT22;57634;51.136;17.024;2023-02-12T05:06:55;7.80;88.60
70244;DHT22;57634;51.136;17.024;2023-02-12T05:09:56;7.70;88.50
70244;DHT22;57634;51.136;17.024;2023-02-12T05:12:58;7.70;88.60
70244;DHT22;57634;51.136;17.024;2023-02-12T05:15:59;7.80;88.50
70244;DHT22;57634;51.136;17.024;2023-02-12T05:19:03;7.80;88.50
70244;DHT22;57634;51.136;17.024;2023-02-12T05:22:05;7.80;88.40
70244;DHT22;57634;51.136;17.024;2023-02-12T05:25:07;7.80;88.30
70244;DHT22;57634;51.136;17.024;2023-02-12T05:28:08;7.80;88.30
70244;DHT22;57634;51.136;17.024;2023-02-12T05:31:12;7.80;88.30
70244;DHT22;57634;51.136;17.024;2023-02-12T05:34:42;7.80;88.20
70244;DHT22;57634;51.136;17.024;2023-02-12T05:37:43;7.80;88.20
70244;DHT22;57634;51.136;17.024;2023-02-12T05:40:44;7.80;88.20
70244;DHT22;57634;51.136;17.024;2023-02-12T05:43:46;7.80;88.10
70244;DHT22;57634;51.136;17.024;2023-02-12T05:46:48;7.80;88.10
70244;DHT22;57634;51.136;17.024;2023-02-12T05:49:50;7.80;88.00
70244;DHT22;57634;51.136;17.024;2023-02-12T05:52:51;7.80;88.00
70244;DHT22;57634;51.136;17.024;2023-02-12T05:55:52;7.80;87.90
70244;DHT22;57634;51.136;17.024;2023-02-12T05:58:59;7.80;87.90
70244;DHT22;57634;51.136;17.024;2023-02-12T06:02:03;7.80;87.80
70244;DHT22;57634;51.136;17.024;2023-02-12T06:05:05;7.80;87.80
70244;DHT22;57634;51.136;17.024;2023-02-12T06:08:06;7.80;87.70
70244;DHT22;57634;51.136;17.024;2023-02-12T06:11:11;7.90;87.70
70244;DHT22;57634;51.136;17.024;2023-02-12T06:14:40;7.80;87.70
70244;DHT22;57634;51.136;17.024;2023-02-12T06:17:42;7.80;87.70
70244;DHT22;57634;51.136;17.024;2023-02-12T06:20:44;7.80;87.60
70244;DHT22;57634;51.136;17.024;2023-02-12T06:23:48;7.90;87.60
70244;DHT22;57634;51.136;17.024;2023-02-12T06:26:50;7.80;87.50
70244;DHT22;57634;51.136;17.024;2023-02-12T06:29:51;7.80;87.40
70244;DHT22;57634;51.136;17.024;2023-02-12T06:32:52;7.80;87.40
70244;DHT22;57634;51.136;17.024;2023-02-12T06:35:54;7.80;87.40
70244;DHT22;57634;51.136;17.024;2023-02-12T06:38:56;7.80;87.40
70244;DHT22;57634;51.136;17.024;2023-02-12T06:41:57;7.80;87.30
70244;DHT22;57634;51.136;17.024;2023-02-12T06:44:58;7.80;87.20
70244;DHT22;57634;51.136;17.024;2023-02-12T06:48:00;7.80;87.20
70244;DHT22;57634;51.136;17.024;2023-02-12T06:51:09;7.80;87.10
70244;DHT22;57634;51.136;17.024;2023-02-12T06:54:37;7.80;87.00
70244;DHT22;57634;51.136;17.024;2023-02-12T06:57:38;7.80;87.00
70244;DHT22;57634;51.136;17.024;2023-02-12T07:00:40;7.90;87.10
70244;DHT22;57634;51.136;17.024;2023-02-12T07:03:41;7.90;87.00
70244;DHT22;57634;51.136;17.024;2023-02-12T07:06:43;7.90;86.90
70244;DHT22;57634;51.136;17.024;2023-02-12T07:09:44;7.90;86.90
70244;DHT22;57634;51.136;17.024;2023-02-12T07:12:45;8.00;86.70
70244;DHT22;57634;51.136;17.024;2023-02-12T07:15:46;8.00;86.50
70244;DHT22;57634;51.136;17.024;2023-02-12T07:18:48;8.00;86.50
70244;DHT22;57634;51.136;17.024;2023-02-12T07:21:50;8.00;86.40
70244;DHT22;57634;51.136;17.024;2023-02-12T07:24:52;8.10;86.40
70244;DHT22;57634;51.136;17.024;2023-02-12T07:27:53;8.10;86.30
70244;DHT22;57634;51.136;17.024;2023-02-12T07:30:54;8.20;86.20
70244;DHT22;57634;51.136;17.024;2023-02-12T07:33:57;8.20;86.20
70244;DHT22;57634;51.136;17.024;2023-02-12T07:37:26;8.30;86.00
70244;DHT22;57634;51.136;17.024;2023-02-12T07:40:27;8.30;85.80
70244;DHT22;57634;51.136;17.024;2023-02-12T07:43:32;8.40;85.70
70244;DHT22;57634;51.136;17.024;2023-02-12T07:46:36;8.40;85.40
70244;DHT22;57634;51.136;17.024;2023-02-12T07:49:38;8.40;85.30
70244;DHT22;57634;51.136;17.024;2023-02-12T07:52:39;8.40;85.10
70244;DHT22;57634;51.136;17.024;2023-02-12T07:55:41;8.40;85.00
70244;DHT22;57634;51.136;17.024;2023-02-12T07:58:44;8.40;84.70
70244;DHT22;57634;51.136;17.024;2023-02-12T08:01:50;8.40;84.70
70244;DHT22;57634;51.136;17.024;2023-02-12T08:04:56;8.40;84.60
70244;DHT22;57634;51.136;17.024;2023-02-12T08:07:57;8.50;84.50
70244;DHT22;57634;51.136;17.024;2023-02-12T08:11:26;8.50;84.50
70244;DHT22;57634;51.136;17.024;2023-02-12T08:14:28;8.50;84.40
70244;DHT22;57634;51.136;17.024;2023-02-12T08:17:29;8.50;84.20
70244;DHT22;57634;51.136;17.024;2023-02-12T08:20:33;8.50;84.10
70244;DHT22;57634;51.136;17.024;2023-02-12T08:23:34;8.50;84.00
70244;DHT22;57634;51.136;17.024;2023-02-12T08:26:37;8.50;83.90
70244;DHT22;57634;51.136;17.024;2023-02-12T08:29:39;8.50;83.70
70244;DHT22;57634;51.136;17.024;2023-02-12T08:32:40;8.60;83.60
70244;DHT22;57634;51.136;17.024;2023-02-12T08:35:41;8.50;83.50
70244;DHT22;57634;51.136;17.024;2023-02-12T08:38:44;8.60;83.50
70244;DHT22;57634;51.136;17.024;2023-02-12T08:41:47;8.60;83.40
70244;DHT22;57634;51.136;17.024;2023-02-12T08:44:48;8.60;83.30
70244;DHT22;57634;51.136;17.024;2023-02-12T08:47:50;8.60;83.30
70244;DHT22;57634;51.136;17.024;2023-02-12T08:51:20;8.70;83.30
70244;DHT22;57634;51.136;17.024;2023-02-12T08:54:24;8.70;83.20
70244;DHT22;57634;51.136;17.024;2023-02-12T08:57:25;8.80;83.00
70244;DHT22;57634;51.136;17.024;2023-02-12T09:00:26;8.80;82.80
70244;DHT22;57634;51.136;17.024;2023-02-12T09:03:27;8.90;82.70
70244;DHT22;57634;51.136;17.024;2023-02-12T09:06:31;8.90;82.60
70244;DHT22;57634;51.136;17.024;2023-02-12T09:09:33;9.00;82.30
70244;DHT22;57634;51.136;17.024;2023-02-12T09:12:34;9.00;82.20
70244;DHT22;57634;51.136;17.024;2023-02-12T09:15:43;9.10;82.20
70244;DHT22;57634;51.136;17.024;2023-02-12T09:18:45;9.20;82.10
70244;DHT22;57634;51.136;17.024;2023-02-12T09:21:53;9.30;81.90
70244;DHT22;57634;51.136;17.024;2023-02-12T09:25:20;9.50;81.80
70244;DHT22;57634;51.136;17.024;2023-02-12T09:28:21;9.70;81.40
70244;DHT22;57634;51.136;17.024;2023-02-12T09:31:25;9.90;80.90
70244;DHT22;57634;51.136;17.024;2023-02-12T09:34:27;10.00;80.10
70244;DHT22;57634;51.136;17.024;2023-02-12T09:37:29;10.10;79.40
70244;DHT22;57634;51.136;17.024;2023-02-12T09:41:21;10.10;79.10
70244;DHT22;57634;51.136;17.024;2023-02-12T09:47:14;10.30;78.50
70244;DHT22;57634;51.136;17.024;2023-02-12T09:50:50;10.50;78.50
70244;DHT22;57634;51.136;17.024;2023-02-12T09:54:01;10.70;78.30
70244;DHT22;57634;51.136;17.024;2023-02-12T09:57:11;10.90;77.90
70244;DHT22;57634;51.136;17.024;2023-02-12T10:00:23;11.20;77.30
70244;DHT22;57634;51.136;17.024;2023-02-12T10:03:26;11.40;76.50
70244;DHT22;57634;51.136;17.024;2023-02-12T10:23:44;12.60;73.20
70244;DHT22;57634;51.136;17.024;2023-02-12T10:26:47;12.70;71.80
70244;DHT22;57634;51.136;17.024;2023-02-12T10:29:51;12.80;71.30
70244;DHT22;57634;51.136;17.024;2023-02-12T10:33:02;12.80;70.30
70244;DHT22;57634;51.136;17.024;2023-02-12T10:36:43;12.80;70.10
70244;DHT22;57634;51.136;17.024;2023-02-12T10:39:54;12.80;69.60
70244;DHT22;57634;51.136;17.024;2023-02-12T10:42:57;13.00;69.60
70244;DHT22;57634;51.136;17.024;2023-02-12T10:45:59;13.20;68.90
70244;DHT22;57634;51.136;17.024;2023-02-12T10:49:02;13.30;68.50
70244;DHT22;57634;51.136;17.024;2023-02-12T10:52:15;13.50;67.70
70244;DHT22;57634;51.136;17.024;2023-02-12T10:55:43;13.60;67.10
70244;DHT22;57634;51.136;17.024;2023-02-12T10:58:54;13.60;66.60
70244;DHT22;57634;51.136;17.024;2023-02-12T11:01:56;13.50;66.00
70244;DHT22;57634;51.136;17.024;2023-02-12T11:04:59;13.40;65.50
70244;DHT22;57634;51.136;17.024;2023-02-12T11:08:05;13.20;65.60
70244;DHT22;57634;51.136;17.024;2023-02-12T11:11:10;13.00;65.60
70244;DHT22;57634;51.136;17.024;2023-02-12T11:14:17;12.80;65.90
70244;DHT22;57634;51.136;17.024;2023-02-12T11:17:30;12.70;66.20
70244;DHT22;57634;51.136;17.024;2023-02-12T11:20:59;12.60;66.70
70244;DHT22;57634;51.136;17.024;2023-02-12T11:30:29;12.70;66.10
70244;DHT22;57634;51.136;17.024;2023-02-12T11:33:33;12.60;65.80
70244;DHT22;57634;51.136;17.024;2023-02-12T11:36:38;12.60;65.50
70244;DHT22;57634;51.136;17.024;2023-02-12T11:40:15;12.60;65.00
70244;DHT22;57634;51.136;17.024;2023-02-12T11:43:18;12.40;64.50
70244;DHT22;57634;51.136;17.024;2023-02-12T11:46:23;12.30;64.50
70244;DHT22;57634;51.136;17.024;2023-02-12T11:49:31;12.20;64.60
70244;DHT22;57634;51.136;17.024;2023-02-12T11:52:36;12.10;64.80
70244;DHT22;57634;51.136;17.024;2023-02-12T11:55:39;12.10;65.10
70244;DHT22;57634;51.136;17.024;2023-02-12T11:58:41;12.00;65.00
70244;DHT22;57634;51.136;17.024;2023-02-12T12:01:44;11.80;65.10
70244;DHT22;57634;51.136;17.024;2023-02-12T12:05:18;11.70;65.40
70244;DHT22;57634;51.136;17.024;2023-02-12T12:08:27;11.60;65.40
70244;DHT22;57634;51.136;17.024;2023-02-12T12:19:00;11.20;65.30
70244;DHT22;57634;51.136;17.024;2023-02-12T12:25:23;11.10;65.90
70244;DHT22;57634;51.136;17.024;2023-02-12T12:32:03;11.00;66.30
70244;DHT22;57634;51.136;17.024;2023-02-12T12:35:17;11.00;67.00
70244;DHT22;57634;51.136;17.024;2023-02-12T12:38:29;11.30;67.00
70244;DHT22;57634;51.136;17.024;2023-02-12T12:41:46;11.60;66.80
70244;DHT22;57634;51.136;17.024;2023-02-12T12:48:44;12.00;64.90
70244;DHT22;57634;51.136;17.024;2023-02-12T12:52:36;12.00;64.40
70244;DHT22;57634;51.136;17.024;2023-02-12T12:55:13;11.90;64.30
70244;DHT22;57634;51.136;17.024;2023-02-12T12:58:24;11.90;64.40
70244;DHT22;57634;51.136;17.024;2023-02-12T13:28:41;11.80;63.20
70244;DHT22;57634;51.136;17.024;2023-02-12T13:31:48;11.80;62.80
70244;DHT22;57634;51.136;17.024;2023-02-12T13:34:52;11.80;62.80
70244;DHT22;57634;51.136;17.024;2023-02-12T13:37:59;11.70;62.80
70244;DHT22;57634;51.136;17.024;2023-02-12T13:41:06;11.70;62.90
70244;DHT22;57634;51.136;17.024;2023-02-12T13:44:19;11.70;62.40
70244;DHT22;57634;51.136;17.024;2023-02-12T13:48:18;11.50;62.30
70244;DHT22;57634;51.136;17.024;2023-02-12T13:57:35;11.00;62.90
70244;DHT22;57634;51.136;17.024;2023-02-12T14:04:27;10.80;63.40
70244;DHT22;57634;51.136;17.024;2023-02-12T14:07:39;10.80;63.60
70244;DHT22;57634;51.136;17.024;2023-02-12T14:11:01;10.80;63.70
70244;DHT22;57634;51.136;17.024;2023-02-12T14:14:00;10.80;63.90
70244;DHT22;57634;51.136;17.024;2023-02-12T14:17:41;10.80;63.80
70244;DHT22;57634;51.136;17.024;2023-02-12T14:20:44;10.80;63.90
70244;DHT22;57634;51.136;17.024;2023-02-12T14:23:46;10.80;63.70
70244;DHT22;57634;51.136;17.024;2023-02-12T14:26:50;10.80;63.50
70244;DHT22;57634;51.136;17.024;2023-02-12T14:30:01;10.70;63.30
70244;DHT22;57634;51.136;17.024;2023-02-12T14:36:45;10.70;63.60
70244;DHT22;57634;51.136;17.024;2023-02-12T14:39:49;10.70;63.60
70244;DHT22;57634;51.136;17.024;2023-02-12T14:42:55;10.60;63.60
70244;DHT22;57634;51.136;17.024;2023-02-12T14:46:42;10.50;63.80
70244;DHT22;57634;51.136;17.024;2023-02-12T14:49:15;10.50;64.10
70244;DHT22;57634;51.136;17.024;2023-02-12T14:52:21;10.40;64.40
70244;DHT22;57634;51.136;17.024;2023-02-12T14:55:30;10.40;64.50
70244;DHT22;57634;51.136;17.024;2023-02-12T14:59:02;10.40;64.70
70244;DHT22;57634;51.136;17.024;2023-02-12T15:02:05;10.40;64.90
70244;DHT22;57634;51.136;17.024;2023-02-12T15:05:18;10.40;65.10
70244;DHT22;57634;51.136;17.024;2023-02-12T15:11:44;10.40;65.30
70244;DHT22;57634;51.136;17.024;2023-02-12T15:21:41;10.40;65.50
70244;DHT22;57634;51.136;17.024;2023-02-12T15:24:43;10.30;65.50
70244;DHT22;57634;51.136;17.024;2023-02-12T15:27:48;10.30;65.70
70244;DHT22;57634;51.136;17.024;2023-02-12T15:30:52;10.30;65.90
70244;DHT22;57634;51.136;17.024;2023-02-12T15:33:56;10.30;66.00
70244;DHT22;57634;51.136;17.024;2023-02-12T15:37:26;10.20;66.10
70244;DHT22;57634;51.136;17.024;2023-02-12T15:40:30;10.20;66.40
70244;DHT22;57634;51.136;17.024;2023-02-12T15:43:34;10.20;66.50
70244;DHT22;57634;51.136;17.024;2023-02-12T15:46:36;10.20;66.50
70244;DHT22;57634;51.136;17.024;2023-02-12T15:49:39;10.10;66.60
70244;DHT22;57634;51.136;17.024;2023-02-12T15:52:43;10.10;66.70
70244;DHT22;57634;51.136;17.024;2023-02-12T15:55:47;10.10;66.90
70244;DHT22;57634;51.136;17.024;2023-02-12T15:58:51;10.00;67.00
70244;DHT22;57634;51.136;17.024;2023-02-12T16:01:59;10.00;67.20
70244;DHT22;57634;51.136;17.024;2023-02-12T16:05:29;9.90;67.30
70244;DHT22;57634;51.136;17.024;2023-02-12T16:08:32;9.90;67.50
70244;DHT22;57634;51.136;17.024;2023-02-12T16:11:36;9.90;67.60
70244;DHT22;57634;51.136;17.024;2023-02-12T16:14:40;9.90;67.80
70244;DHT22;57634;51.136;17.024;2023-02-12T16:17:47;9.90;68.00
70244;DHT22;57634;51.136;17.024;2023-02-12T16:20:48;9.80;67.90
70244;DHT22;57634;51.136;17.024;2023-02-12T16:23:50;9.80;68.10
70244;DHT22;57634;51.136;17.024;2023-02-12T16:26:52;9.80;68.20
70244;DHT22;57634;51.136;17.024;2023-02-12T16:29:59;9.80;68.40
70244;DHT22;57634;51.136;17.024;2023-02-12T16:33:01;9.80;68.70
70244;DHT22;57634;51.136;17.024;2023-02-12T16:36:30;9.70;69.00
70244;DHT22;57634;51.136;17.024;2023-02-12T16:46:04;9.50;70.10
70244;DHT22;57634;51.136;17.024;2023-02-12T16:49:15;9.50;70.20
70244;DHT22;57634;51.136;17.024;2023-02-12T16:52:43;9.40;70.20
70244;DHT22;57634;51.136;17.024;2023-02-12T16:55:45;9.30;70.40
70244;DHT22;57634;51.136;17.024;2023-02-12T16:58:48;9.10;70.50
70244;DHT22;57634;51.136;17.024;2023-02-12T17:02:00;9.00;70.70
70244;DHT22;57634;51.136;17.024;2023-02-12T17:05:03;8.90;70.80
70244;DHT22;57634;51.136;17.024;2023-02-12T17:08:14;8.80;70.80
70244;DHT22;57634;51.136;17.024;2023-02-12T17:11:16;8.70;70.90
70244;DHT22;57634;51.136;17.024;2023-02-12T17:14:19;8.60;71.10
70244;DHT22;57634;51.136;17.024;2023-02-12T17:17:49;8.50;71.10
70244;DHT22;57634;51.136;17.024;2023-02-12T17:20:54;8.40;71.20
70244;DHT22;57634;51.136;17.024;2023-02-12T17:23:57;8.40;71.30
70244;DHT22;57634;51.136;17.024;2023-02-12T17:26:59;8.40;71.40
70244;DHT22;57634;51.136;17.024;2023-02-12T17:30:01;8.30;71.40
70244;DHT22;57634;51.136;17.024;2023-02-12T17:33:07;8.40;71.50
70244;DHT22;57634;51.136;17.024;2023-02-12T17:36:10;8.40;71.40
70244;DHT22;57634;51.136;17.024;2023-02-12T17:39:13;8.40;71.30
70244;DHT22;57634;51.136;17.024;2023-02-12T17:42:15;8.40;71.10
70244;DHT22;57634;51.136;17.024;2023-02-12T17:45:17;8.40;71.10
70244;DHT22;57634;51.136;17.024;2023-02-12T17:48:19;8.50;71.00
70244;DHT22;57634;51.136;17.024;2023-02-12T17:51:50;8.50;70.90
70244;DHT22;57634;51.136;17.024;2023-02-12T17:54:51;8.60;70.90
70244;DHT22;57634;51.136;17.024;2023-02-12T17:57:54;8.60;70.70
70244;DHT22;57634;51.136;17.024;2023-02-12T18:00:55;8.70;70.60
70244;DHT22;57634;51.136;17.024;2023-02-12T18:03:57;8.70;70.50
70244;DHT22;57634;51.136;17.024;2023-02-12T18:06:59;8.70;70.30
70244;DHT22;57634;51.136;17.024;2023-02-12T18:10:06;8.70;70.30
70244;DHT22;57634;51.136;17.024;2023-02-12T18:13:08;8.70;70.40
70244;DHT22;57634;51.136;17.024;2023-02-12T18:16:10;8.70;70.30
70244;DHT22;57634;51.136;17.024;2023-02-12T18:19:11;8.70;70.30
70244;DHT22;57634;51.136;17.024;2023-02-12T18:22:13;8.70;70.50
70244;DHT22;57634;51.136;17.024;2023-02-12T18:25:15;8.70;70.60
70244;DHT22;57634;51.136;17.024;2023-02-12T18:28:46;8.80;70.80
70244;DHT22;57634;51.136;17.024;2023-02-12T18:31:47;8.80;71.00
70244;DHT22;57634;51.136;17.024;2023-02-12T18:34:49;8.80;71.00
70244;DHT22;57634;51.136;17.024;2023-02-12T18:37:50;8.80;71.10
70244;DHT22;57634;51.136;17.024;2023-02-12T18:40:52;8.80;71.20
70244;DHT22;57634;51.136;17.024;2023-02-12T18:43:53;8.80;71.30
70244;DHT22;57634;51.136;17.024;2023-02-12T18:46:56;8.90;71.50
70244;DHT22;57634;51.136;17.024;2023-02-12T18:50:00;8.90;71.60
70244;DHT22;57634;51.136;17.024;2023-02-12T18:53:01;8.80;71.70
70244;DHT22;57634;51.136;17.024;2023-02-12T18:56:06;8.80;71.90
70244;DHT22;57634;51.136;17.024;2023-02-12T18:59:11;8.80;72.10
70244;DHT22;57634;51.136;17.024;2023-02-12T19:02:13;8.80;72.20
70244;DHT22;57634;51.136;17.024;2023-02-12T19:05:40;8.80;72.30
70244;DHT22;57634;51.136;17.024;2023-02-12T19:08:42;8.80;72.60
70244;DHT22;57634;51.136;17.024;2023-02-12T19:11:44;8.80;72.70
70244;DHT22;57634;51.136;17.024;2023-02-12T19:14:46;8.80;72.80
70244;DHT22;57634;51.136;17.024;2023-02-12T19:17:47;8.80;73.00
70244;DHT22;57634;51.136;17.024;2023-02-12T19:20:49;8.80;73.20
70244;DHT22;57634;51.136;17.024;2023-02-12T19:23:53;8.80;73.20
70244;DHT22;57634;51.136;17.024;2023-02-12T19:26:54;8.80;73.30
70244;DHT22;57634;51.136;17.024;2023-02-12T19:29:56;8.80;73.40
70244;DHT22;57634;51.136;17.024;2023-02-12T19:32:59;8.80;73.40
70244;DHT22;57634;51.136;17.024;2023-02-12T19:36:03;8.80;73.50
70244;DHT22;57634;51.136;17.024;2023-02-12T19:39:05;8.80;73.60
70244;DHT22;57634;51.136;17.024;2023-02-12T19:42:06;8.70;73.70
70244;DHT22;57634;51.136;17.024;2023-02-12T19:45:33;8.70;74.00
70244;DHT22;57634;51.136;17.024;2023-02-12T19:48:36;8.60;74.60
70244;DHT22;57634;51.136;17.024;2023-02-12T19:51:38;8.50;74.90
70244;DHT22;57634;51.136;17.024;2023-02-12T19:54:43;8.50;75.30
70244;DHT22;57634;51.136;17.024;2023-02-12T19:57:44;8.50;75.60
70244;DHT22;57634;51.136;17.024;2023-02-12T20:00:48;8.50;75.80
70244;DHT22;57634;51.136;17.024;2023-02-12T20:03:50;8.40;76.20
70244;DHT22;57634;51.136;17.024;2023-02-12T20:06:52;8.40;76.80
70244;DHT22;57634;51.136;17.024;2023-02-12T20:09:53;8.40;77.10
70244;DHT22;57634;51.136;17.024;2023-02-12T20:12:55;8.40;77.40
70244;DHT22;57634;51.136;17.024;2023-02-12T20:16:22;8.40;77.60
70244;DHT22;57634;51.136;17.024;2023-02-12T20:19:42;8.40;77.80
70244;DHT22;57634;51.136;17.024;2023-02-12T20:22:44;8.40;78.10
70244;DHT22;57634;51.136;17.024;2023-02-12T20:25:46;8.40;78.40
70244;DHT22;57634;51.136;17.024;2023-02-12T20:28:48;8.40;78.60
70244;DHT22;57634;51.136;17.024;2023-02-12T20:31:50;8.40;78.80
70244;DHT22;57634;51.136;17.024;2023-02-12T20:34:52;8.40;79.00
70244;DHT22;57634;51.136;17.024;2023-02-12T20:37:53;8.40;79.10
70244;DHT22;57634;51.136;17.024;2023-02-12T20:40:54;8.40;79.20
70244;DHT22;57634;51.136;17.024;2023-02-12T20:43:59;8.40;79.40
70244;DHT22;57634;51.136;17.024;2023-02-12T20:47:07;8.30;79.50
70244;DHT22;57634;51.136;17.024;2023-02-12T20:50:08;8.40;79.80
70244;DHT22;57634;51.136;17.024;2023-02-12T20:53:10;8.30;79.90
70244;DHT22;57634;51.136;17.024;2023-02-12T20:56:37;8.30;80.10
70244;DHT22;57634;51.136;17.024;2023-02-12T20:59:38;8.30;80.40
70244;DHT22;57634;51.136;17.024;2023-02-12T21:02:39;8.30;80.50
70244;DHT22;57634;51.136;17.024;2023-02-12T21:05:40;8.30;80.70
70244;DHT22;57634;51.136;17.024;2023-02-12T21:08:47;8.30;80.90
70244;DHT22;57634;51.136;17.024;2023-02-12T21:11:51;8.30;81.00
70244;DHT22;57634;51.136;17.024;2023-02-12T21:14:57;8.30;81.10
70244;DHT22;57634;51.136;17.024;2023-02-12T21:17:59;8.30;81.20
70244;DHT22;57634;51.136;17.024;2023-02-12T21:21:06;8.30;81.30
70244;DHT22;57634;51.136;17.024;2023-02-12T21:24:12;8.30;81.30
70244;DHT22;57634;51.136;17.024;2023-02-12T21:27:39;8.30;81.30
70244;DHT22;57634;51.136;17.024;2023-02-12T21:30:42;8.30;81.50
70244;DHT22;57634;51.136;17.024;2023-02-12T21:33:44;8.30;81.50
70244;DHT22;57634;51.136;17.024;2023-02-12T21:36:48;8.30;81.70
70244;DHT22;57634;51.136;17.024;2023-02-12T21:39:49;8.30;81.70
70244;DHT22;57634;51.136;17.024;2023-02-12T21:42:50;8.30;81.70
70244;DHT22;57634;51.136;17.024;2023-02-12T21:45:52;8.30;81.80
70244;DHT22;57634;51.136;17.024;2023-02-12T21:48:54;8.30;81.80
70244;DHT22;57634;51.136;17.024;2023-02-12T21:51:59;8.30;81.90
70244;DHT22;57634;51.136;17.024;2023-02-12T21:55:01;8.30;82.00
70244;DHT22;57634;51.136;17.024;2023-02-12T21:58:03;8.30;82.10
70244;DHT22;57634;51.136;17.024;2023-02-12T22:01:06;8.30;82.20
70244;DHT22;57634;51.136;17.024;2023-02-12T22:04:34;8.30;82.20
70244;DHT22;57634;51.136;17.024;2023-02-12T22:07:35;8.30;82.40
70244;DHT22;57634;51.136;17.024;2023-02-12T22:10:37;8.30;82.50
70244;DHT22;57634;51.136;17.024;2023-02-12T22:13:39;8.30;82.60